Weather reports worldwide

Advertisment
Bridlington Mrsc, United Kingdom (3292): temperature & dewpoint: 13.02.2019 13:00:00 - 19.02.2019 13:00:00 (GMT)Bridlington Mrsc, United Kingdom (3292): wind speed & gusts: 13.02.2019 13:00:00 - 19.02.2019 13:00:00 (GMT)Bridlington Mrsc, United Kingdom (3292): wind direction: 13.02.2019 13:00:00 - 19.02.2019 13:00:00 (GMT)Bridlington Mrsc, United Kingdom (3292): reduced air pressure: 13.02.2019 13:00:00 - 19.02.2019 13:00:00 (GMT)Bridlington Mrsc, United Kingdom (3292): precipitation: 13.02.2019 13:00:00 - 19.02.2019 13:00:00 (GMT)
Date & Time tt [°C] td [°C] ff [km/h] ff [kn] fx [km/h] fx [kn] dd ppp [hPa] rr [mm]
19.02.2019 13:00:00 11,4 3,6 24 13 - - WSW 1014,4 0,0
19.02.2019 12:00:00 10,6 3,9 21 11 46 25 WSW 1014,3 0,0
19.02.2019 11:00:00 10,3 5,2 18 10 - - WSW 1014,0 0,0
19.02.2019 10:00:00 9,4 5,4 15 8 - - WSW 1013,7 0,0
19.02.2019 09:00:00 7,5 5,0 8 4 - - WSW 1013,3 0,0
19.02.2019 08:00:00 4,9 3,9 2 1 - - SW 1012,8 0,0
19.02.2019 07:00:00 4,8 3,7 8 4 - - SW 1012,3 0,0
19.02.2019 06:00:00 5,3 3,7 2 1 - - SSW 1011,7 0,0
19.02.2019 05:00:00 6,8 5,0 11 6 - - WSW 1011,1 0,0
19.02.2019 04:00:00 6,8 5,2 13 7 - - WSW 1010,7 0,0
19.02.2019 03:00:00 6,3 4,4 5 3 - - WSW 1010,6 0,0
19.02.2019 02:00:00 6,6 4,5 16 9 - - WSW 1010,0 0,0
19.02.2019 01:00:00 6,2 3,7 16 9 - - SW 1009,6 0,0
19.02.2019 00:00:00 5,6 3,1 22 12 - - SW 1009,4 0,0
18.02.2019 23:00:00 5,9 2,9 16 9 - - SW 1009,5 0,0
18.02.2019 22:00:00 6,7 2,9 15 8 - - SW 1009,5 0,0
18.02.2019 21:00:00 7,5 3,3 16 9 - - SW 1009,4 0,0
18.02.2019 20:00:00 7,6 3,2 16 9 - - WSW 1009,1 0,0
18.02.2019 19:00:00 7,8 2,8 21 11 54 29 WSW 1008,7 0,0
18.02.2019 18:00:00 8,7 2,6 29 16 48 26 SW 1007,7 0,0
18.02.2019 17:00:00 9,5 2,4 29 16 54 29 SW 1007,8 0,0
18.02.2019 16:00:00 9,8 3,4 22 12 - - SW 1008,0 0,0
18.02.2019 15:00:00 10,7 3,7 22 12 46 25 SW 1008,2 0,0
18.02.2019 14:00:00 10,8 5,5 22 12 54 29 SW 1008,4 0,0
18.02.2019 13:00:00 11,2 5,5 28 15 54 29 SW 1009,0 0,0
18.02.2019 12:00:00 11,1 5,6 31 17 54 29 SW 1009,4 0,0
18.02.2019 11:00:00 10,3 6,1 24 13 - - SW 1009,9 0,0
18.02.2019 10:00:00 8,7 6,6 24 13 - - SSW 1010,0 0,0
18.02.2019 09:00:00 7,6 5,9 28 15 48 26 SW 1010,1 0,0
18.02.2019 08:00:00 7,0 5,6 21 11 - - SW 1010,3 0,0
18.02.2019 07:00:00 7,0 5,3 18 10 - - SSW 1010,2 0,0
18.02.2019 06:00:00 7,4 5,5 15 8 - - SSW 1010,4 0,0
18.02.2019 05:00:00 7,5 5,5 22 12 - - SW 1010,4 0,0
18.02.2019 04:00:00 7,3 5,6 24 13 - - SSW 1010,6 0,0
18.02.2019 03:00:00 7,2 5,5 28 15 - - SSW 1010,7 0,0
18.02.2019 02:00:00 7,9 5,8 22 12 - - SW 1011,2 0,0
18.02.2019 01:00:00 7,5 6,1 26 14 - - SSW 1011,0 0,0
18.02.2019 00:00:00 7,4 6,1 28 15 - - SSW 1011,3 0,0
17.02.2019 23:00:00 8,4 6,7 22 12 - - SSW 1011,2 0,0
17.02.2019 22:00:00 8,5 7,0 21 11 - - SSW 1011,2 0,0
17.02.2019 21:00:00 8,0 6,6 16 9 - - SSW 1011,1 0,0
17.02.2019 20:00:00 8,3 6,5 18 10 - - SSW 1011,0 0,0
17.02.2019 19:00:00 9,2 7,1 18 10 - - SSW 1010,7 0,0
17.02.2019 18:00:00 8,6 6,6 16 9 - - SSW 1010,0 0,0
17.02.2019 17:00:00 9,9 6,6 26 14 - - SSW 1009,4 0,0
17.02.2019 16:00:00 12,5 7,1 29 16 - - SSW 1009,3 0,0
17.02.2019 15:00:00 11,2 6,6 28 15 46 25 SSW 1009,6 0,0
17.02.2019 14:00:00 10,6 6,2 24 13 - - SSW 1009,8 0,0
17.02.2019 13:00:00 7,8 6,0 22 12 - - S 1010,2 0,0
17.02.2019 12:00:00 7,9 5,6 26 14 - - SSE 1010,4 -
17.02.2019 11:00:00 9,2 6,5 16 9 - - S 1011,3 -
17.02.2019 10:00:00 7,3 6,0 26 14 - - S 1011,7 0,0
17.02.2019 09:00:00 6,8 6,2 28 15 - - SSE 1012,0 0,0
17.02.2019 08:00:00 6,3 5,7 16 9 - - S 1012,9 0,0
17.02.2019 07:00:00 6,5 5,6 13 7 - - S 1013,1 0,0
17.02.2019 06:00:00 7,4 6,3 22 12 - - S 1013,5 0,0
17.02.2019 05:00:00 7,9 6,6 28 15 - - SSW 1013,9 0,0
17.02.2019 04:00:00 8,5 7,2 31 17 - - SSW 1014,5 0,0
17.02.2019 03:00:00 7,4 6,6 24 13 - - S 1015,0 0,0
17.02.2019 02:00:00 7,4 6,3 16 9 - - SSE 1015,8 0,0
17.02.2019 01:00:00 7,6 6,8 29 16 - - S 1016,0 0,0
17.02.2019 00:00:00 7,2 6,3 21 11 - - S 1016,6 0,0
16.02.2019 23:00:00 8,3 7,2 21 11 - - SSW 1016,9 0,0
16.02.2019 22:00:00 9,6 8,0 26 14 - - SSW 1017,1 0,0
16.02.2019 21:00:00 8,7 7,2 21 11 - - SSW 1017,5 0,0
16.02.2019 20:00:00 8,5 6,2 4 2 - - SSE 1017,6 0,0
16.02.2019 19:00:00 9,2 6,0 18 10 - - SSW 1017,7 0,0
16.02.2019 18:00:00 10,0 7,0 13 7 - - SSW 1017,5 0,0
16.02.2019 17:00:00 9,9 5,5 16 9 - - SSW 1017,4 0,0
16.02.2019 16:00:00 12,4 5,5 15 8 - - SW 1017,6 0,0
16.02.2019 15:00:00 13,3 5,1 22 12 - - SW 1018,1 0,0
16.02.2019 14:00:00 13,4 5,3 24 13 - - SW 1018,3 0,0
16.02.2019 13:00:00 13,1 6,0 22 12 - - SW 1018,8 0,0
16.02.2019 12:00:00 12,6 6,5 16 9 - - SW 1018,9 0,0
16.02.2019 11:00:00 11,4 6,5 24 13 - - SW 1018,6 0,0
16.02.2019 10:00:00 9,0 6,3 5 3 - - S 1018,9 0,0
16.02.2019 09:00:00 6,8 5,5 13 7 - - SW 1018,7 0,0
16.02.2019 08:00:00 5,7 4,9 16 9 - - SW 1018,2 0,0
16.02.2019 07:00:00 5,1 3,5 5 3 - - SE 1018,0 0,0
16.02.2019 06:00:00 6,2 4,5 11 6 - - SW 1017,8 0,0
16.02.2019 05:00:00 6,6 4,4 21 11 - - SSW 1017,5 0,0
16.02.2019 04:00:00 6,8 4,2 16 9 - - SW 1017,2 0,0
16.02.2019 03:00:00 7,2 4,4 22 12 - - SSW 1017,2 0,0
16.02.2019 02:00:00 6,9 4,3 13 7 - - SW 1017,4 0,0
16.02.2019 01:00:00 6,8 4,1 18 10 - - SSW 1018,2 0,0
16.02.2019 00:00:00 7,3 4,1 24 13 - - SSW 1018,3 0,0
15.02.2019 23:00:00 6,9 3,8 13 7 - - WSW 1018,9 0,0
15.02.2019 22:00:00 7,5 4,6 16 9 - - SW 1019,2 0,0
15.02.2019 21:00:00 6,5 4,6 22 12 - - SSW 1019,6 0,0
15.02.2019 20:00:00 8,2 5,0 18 10 - - SSW 1020,0 0,0
15.02.2019 19:00:00 9,1 5,4 13 7 - - SW 1020,6 0,0
15.02.2019 18:00:00 8,1 5,8 11 6 - - SSW 1020,9 0,0
15.02.2019 17:00:00 8,1 5,7 24 13 - - S 1021,0 0,0
15.02.2019 16:00:00 9,4 5,7 24 13 - - SSW 1021,2 0,0
15.02.2019 15:00:00 9,6 5,4 24 13 - - SSW 1021,8 0,0
15.02.2019 14:00:00 10,0 4,8 26 14 - - SSW 1022,4 0,0
15.02.2019 13:00:00 10,3 4,9 22 12 - - SSW 1023,3 0,0
15.02.2019 12:00:00 8,5 4,9 24 13 - - SSW 1023,9 0,0
15.02.2019 11:00:00 7,2 4,2 22 12 - - SSW 1024,5 0,0
15.02.2019 10:00:00 5,0 2,7 18 10 - - SSW 1025,3 0,0
15.02.2019 09:00:00 3,6 1,8 8 4 - - SSW 1025,7 0,0
15.02.2019 08:00:00 1,2 0,2 8 4 - - W 1025,8 0,0
15.02.2019 07:00:00 2,1 0,8 11 6 - - SW 1025,8 0,0
15.02.2019 06:00:00 2,0 0,9 9 5 - - WSW 1026,0 0,0
15.02.2019 05:00:00 3,0 1,6 11 6 - - SW 1026,3 0,0
15.02.2019 04:00:00 4,1 2,7 18 10 - - SSW 1026,7 0,0
15.02.2019 03:00:00 3,9 2,7 16 9 - - SSW 1027,1 0,0
15.02.2019 02:00:00 5,0 3,5 16 9 - - SSW 1027,4 0,0
15.02.2019 01:00:00 5,2 3,5 15 8 - - SSW 1027,7 0,0
15.02.2019 00:00:00 5,0 3,4 8 4 - - S 1028,4 0,0
14.02.2019 23:00:00 4,6 2,9 8 4 - - WSW 1028,5 0,0
14.02.2019 22:00:00 5,8 4,9 13 7 - - SW 1028,6 0,0
14.02.2019 21:00:00 5,2 4,0 5 3 - - SSE 1028,6 0,0
14.02.2019 20:00:00 5,9 4,0 4 2 - - SSE 1028,8 0,0
14.02.2019 19:00:00 8,1 5,0 11 6 - - SW 1028,9 0,0
14.02.2019 18:00:00 7,8 5,1 11 6 - - SW 1029,0 0,0
14.02.2019 17:00:00 8,0 4,7 11 6 - - SSW 1028,8 0,0
14.02.2019 16:00:00 8,4 4,5 8 4 - - S 1029,0 0,0
14.02.2019 15:00:00 9,8 4,4 13 7 - - S 1029,2 0,0
14.02.2019 14:00:00 10,1 4,2 24 13 - - SSW 1029,3 0,0
14.02.2019 13:00:00 10,0 3,5 18 10 - - SSW 1029,8 0,0
14.02.2019 12:00:00 9,2 4,6 16 9 - - SSW 1030,4 0,0
14.02.2019 11:00:00 8,4 3,8 16 9 - - WSW 1030,5 0,0
14.02.2019 10:00:00 6,1 3,9 15 8 - - WSW 1030,4 0,0
14.02.2019 09:00:00 4,2 3,5 24 13 - - W 1030,4 0,0
14.02.2019 08:00:00 3,3 2,6 16 9 - - WSW 1030,2 0,0
14.02.2019 07:00:00 3,5 2,8 15 8 - - WSW 1029,8 0,0
14.02.2019 06:00:00 3,7 2,8 21 11 - - SW 1029,3 0,0
14.02.2019 05:00:00 4,1 3,1 15 8 - - WSW 1029,3 0,0
14.02.2019 04:00:00 4,5 3,3 13 7 - - SW 1029,6 0,0
14.02.2019 03:00:00 5,2 3,9 11 6 - - SW 1029,2 0,0
14.02.2019 02:00:00 5,6 4,4 15 8 - - SW 1029,1 0,0
14.02.2019 01:00:00 6,0 4,3 13 7 - - SSW 1029,1 0,0
14.02.2019 00:00:00 6,3 4,7 5 3 - - S 1028,6 0,0
13.02.2019 23:00:00 7,2 4,8 9 5 - - SSW 1028,4 0,0
13.02.2019 22:00:00 8,3 4,9 15 8 - - SW 1028,0 0,0
13.02.2019 21:00:00 7,7 4,8 15 8 - - SSW 1028,0 0,0
13.02.2019 20:00:00 8,4 4,8 11 6 - - SSW 1028,2 0,0
13.02.2019 19:00:00 9,3 5,3 13 7 - - SW 1027,8 0,0
13.02.2019 18:00:00 9,4 5,6 16 9 - - SW 1027,8 0,0
13.02.2019 17:00:00 9,7 5,9 11 6 - - WSW 1027,8 0,0
13.02.2019 16:00:00 9,8 5,8 11 6 - - SSW 1027,7 0,0
13.02.2019 15:00:00 10,7 5,9 16 9 - - SW 1027,9 0,0
13.02.2019 14:00:00 10,3 6,0 16 9 - - SW 1028,1 0,0
13.02.2019 13:00:00 10,4 6,0 21 11 - - SW 1028,5 0,0

tt = temperature
td = dewpoint
ff = wind speed
fx = gusts
dd = wind direction
ppp = reduced air pressure
rr = precipitation

Next stations